Alcasser, Spain
Current Conditions -  °F | °C
As of 5:30 PM on Wednesday 22 Oct 2014 (Local Time) from LEVC Reporting Station
Clear Clear  
Wind Chill: 73°   Ceiling: Unl
Heat Index: 73°   Visibility: 6mi
Dew Point: 52°   Wind: 10mph
Humidity: 47%   Direction: 140°SE
Pressure: 30.18"   Gusts: NA
Location:  39.37°N, 0.43°W
Report Text: LEVC 221530Z 14009KT 100V160 CAVOK 23/11 Q1022 NOSIG
Loading
Personal Weather Stations






























Interactive Weather Map
Tropical Storm Tracking
New forecast layout! Learn more

10-Day Weather Forecast

Advertisements
Track Severe Weather on mobile